createdAt,value
2022-09-28T00:00:29.154Z,80.96
2022-09-28T00:02:57.760Z,80.72
2022-09-28T00:05:27.147Z,80.66
2022-09-28T00:07:54.473Z,80.98
2022-09-28T00:10:23.225Z,80.92
2022-09-28T00:12:50.626Z,80.67
2022-09-28T00:15:20.590Z,80.95
2022-09-28T00:17:47.751Z,80.92
2022-09-28T00:20:14.723Z,81.09
2022-09-28T00:22:41.575Z,80.92
2022-09-28T00:25:08.945Z,80.93
2022-09-28T00:27:35.730Z,81.13
2022-09-28T00:30:02.604Z,81.12
2022-09-28T00:32:30.081Z,81.39
2022-09-28T00:34:56.937Z,81.21
2022-09-28T00:37:23.797Z,81.11
2022-09-28T00:39:50.760Z,81.30
2022-09-28T00:42:21.878Z,80.97
2022-09-28T00:44:53.717Z,81.19
2022-09-28T00:47:26.014Z,81.19
2022-09-28T00:50:05.950Z,80.91
2022-09-28T00:52:53.416Z,81.38
2022-09-28T00:55:25.876Z,81.30
2022-09-28T00:57:56.800Z,81.25
2022-09-28T01:00:24.634Z,81.42
2022-09-28T01:02:51.674Z,81.45
2022-09-28T01:05:19.157Z,81.26
2022-09-28T01:07:46.898Z,81.32
2022-09-28T01:10:14.356Z,81.52
2022-09-28T01:12:41.185Z,81.51
2022-09-28T01:15:08.566Z,81.31
2022-09-28T01:17:44.423Z,81.09
2022-09-28T01:20:34.444Z,81.49
2022-09-28T01:23:30.351Z,81.53
2022-09-28T01:26:15.274Z,81.82
2022-09-28T01:28:44.030Z,81.85
2022-09-28T01:31:13.726Z,81.93
2022-09-28T01:33:44.357Z,81.73
2022-09-28T01:36:19.608Z,82.01
2022-09-28T01:38:55.907Z,82.04
2022-09-28T01:41:25.297Z,81.80
2022-09-28T01:43:55.535Z,82.21
2022-09-28T01:46:44.964Z,82.12
2022-09-28T01:49:31.899Z,81.96
2022-09-28T01:52:35.343Z,82.33
2022-09-28T01:55:16.937Z,82.17
2022-09-28T01:58:05.092Z,81.97
2022-09-28T02:00:32.913Z,82.21
2022-09-28T02:03:11.091Z,82.10
2022-09-28T02:05:56.972Z,82.09
2022-09-28T02:08:29.272Z,82.19
2022-09-28T02:11:13.901Z,82.11
2022-09-28T02:13:43.427Z,82.42
2022-09-28T02:16:21.915Z,82.33
2022-09-28T02:18:49.893Z,82.40
2022-09-28T02:21:24.212Z,82.61
2022-09-28T02:24:27.800Z,82.40
2022-09-28T02:27:00.427Z,82.60
2022-09-28T02:29:33.005Z,82.61
2022-09-28T02:32:00.274Z,82.30
2022-09-28T02:34:27.092Z,82.19
2022-09-28T02:36:54.141Z,82.41
2022-09-28T02:39:21.028Z,82.31
2022-09-28T02:41:54.908Z,82.23
2022-09-28T02:44:48.490Z,82.41
2022-09-28T02:47:28.486Z,82.69
2022-09-28T02:50:07.107Z,82.75
2022-09-28T02:52:49.837Z,82.34
2022-09-28T02:55:52.137Z,82.50
2022-09-28T02:58:55.490Z,82.50
2022-09-28T03:01:37.232Z,82.87
2022-09-28T03:04:23.083Z,82.54
2022-09-28T03:07:06.360Z,82.84
2022-09-28T03:09:52.333Z,82.78
2022-09-28T03:12:20.629Z,82.89
2022-09-28T03:14:47.653Z,82.79
2022-09-28T03:17:14.775Z,82.78
2022-09-28T03:19:42.008Z,82.78
2022-09-28T03:22:13.140Z,82.69
2022-09-28T03:24:40.029Z,82.70
2022-09-28T03:27:06.868Z,82.51
2022-09-28T03:29:34.598Z,82.76
2022-09-28T03:32:05.104Z,82.86
2022-09-28T03:34:31.804Z,82.60
2022-09-28T03:36:58.716Z,82.63
2022-09-28T03:39:30.156Z,82.48
2022-09-28T03:42:02.663Z,82.89
2022-09-28T03:47:58.307Z,82.95
2022-09-28T03:50:25.215Z,82.93
2022-09-28T03:52:51.943Z,82.71
2022-09-28T03:55:18.897Z,82.63
2022-09-28T03:57:59.941Z,82.86
2022-09-28T04:00:27.688Z,82.61
2022-09-28T04:02:55.253Z,82.80
2022-09-28T04:05:22.119Z,82.67
2022-09-28T04:07:48.959Z,82.93
2022-09-28T04:10:15.756Z,82.85
2022-09-28T04:12:42.513Z,82.83
2022-09-28T04:15:10.299Z,82.77
2022-09-28T04:17:40.065Z,82.83
2022-09-28T04:20:12.876Z,83.16
2022-09-28T04:22:48.395Z,83.02
2022-09-28T04:25:15.717Z,82.88
2022-09-28T04:28:01.147Z,83.26
2022-09-28T04:30:28.047Z,83.27
2022-09-28T04:32:54.861Z,83.03
2022-09-28T04:35:21.726Z,83.26
2022-09-28T04:37:48.695Z,83.04
2022-09-28T04:40:16.092Z,83.47
2022-09-28T04:42:43.187Z,83.24
2022-09-28T04:45:10.563Z,83.63
2022-09-28T04:47:41.870Z,83.62
2022-09-28T04:50:18.218Z,83.52
2022-09-28T04:53:03.889Z,83.56
2022-09-28T04:55:32.661Z,83.42
2022-09-28T04:58:04.281Z,83.31
2022-09-28T05:00:35.323Z,83.24
2022-09-28T05:03:09.228Z,83.54
2022-09-28T05:05:56.323Z,83.09
2022-09-28T05:08:38.300Z,83.55
2022-09-28T05:11:12.200Z,83.23
2022-09-28T05:13:41.945Z,83.30
2022-09-28T05:16:09.570Z,83.27
2022-09-28T05:18:58.594Z,83.39
2022-09-28T05:21:26.676Z,83.51
2022-09-28T05:23:56.388Z,83.43
2022-09-28T05:26:23.875Z,83.26
2022-09-28T05:28:51.193Z,83.39
2022-09-28T05:31:39.858Z,83.23
2022-09-28T05:34:18.260Z,83.62
2022-09-28T05:36:46.171Z,83.42
2022-09-28T05:39:13.226Z,83.21
2022-09-28T05:41:40.135Z,83.52
2022-09-28T05:44:07.127Z,83.39
2022-09-28T05:46:35.255Z,83.04
2022-09-28T05:49:02.470Z,83.11
2022-09-28T05:51:29.418Z,83.34
2022-09-28T05:54:05.734Z,83.29
2022-09-28T05:56:38.293Z,83.26
2022-09-28T05:59:07.738Z,83.18
2022-09-28T06:01:34.672Z,83.34
2022-09-28T06:04:02.583Z,83.22
2022-09-28T06:06:29.559Z,83.29
2022-09-28T06:08:56.953Z,83.19
2022-09-28T06:11:35.896Z,83.04
2022-09-28T06:14:09.448Z,83.12
2022-09-28T06:16:43.591Z,82.93
2022-09-28T06:19:12.641Z,82.78
2022-09-28T06:21:59.808Z,82.97
2022-09-28T06:24:27.327Z,82.96
2022-09-28T06:26:54.149Z,82.91
2022-09-28T06:29:21.834Z,82.79
2022-09-28T06:31:48.578Z,82.97
2022-09-28T06:34:15.614Z,82.73
2022-09-28T06:36:44.404Z,82.89
2022-09-28T06:39:11.243Z,82.67
2022-09-28T06:41:38.151Z,82.72
2022-09-28T06:44:14.119Z,82.57
2022-09-28T06:46:58.779Z,82.62
2022-09-28T06:49:41.520Z,82.32
2022-09-28T06:52:27.201Z,82.07
2022-09-28T06:55:24.723Z,81.95
2022-09-28T06:57:59.890Z,81.73
2022-09-28T07:00:28.077Z,81.91
2022-09-28T07:02:55.435Z,81.81
2022-09-28T07:05:46.265Z,81.88
2022-09-28T07:08:36.562Z,81.77
2022-09-28T07:11:27.094Z,81.56
2022-09-28T07:14:22.607Z,81.83
2022-09-28T07:17:12.494Z,81.53
2022-09-28T07:19:40.480Z,81.43
2022-09-28T07:22:08.171Z,81.11
2022-09-28T07:24:35.382Z,80.89
2022-09-28T07:27:23.396Z,80.79
2022-09-28T07:30:11.907Z,80.59
2022-09-28T07:33:04.340Z,80.11
2022-09-28T07:35:42.320Z,80.10
2022-09-28T07:38:13.168Z,80.16
2022-09-28T07:40:58.877Z,80.09
2022-09-28T07:43:26.098Z,80.25
2022-09-28T07:45:55.069Z,80.03
2022-09-28T07:48:25.269Z,80.04
2022-09-28T07:51:00.251Z,80.06
2022-09-28T07:53:32.566Z,79.73
2022-09-28T07:56:25.984Z,79.82
2022-09-28T07:59:04.006Z,80.03
2022-09-28T08:01:39.673Z,79.82
2022-09-28T08:04:09.144Z,79.93
2022-09-28T08:06:36.844Z,79.77
2022-09-28T08:09:05.573Z,79.56
2022-09-28T08:12:00.672Z,79.60
2022-09-28T08:14:48.234Z,79.62
2022-09-28T08:17:37.657Z,79.58
2022-09-28T08:20:27.916Z,79.38
2022-09-28T08:22:54.870Z,79.18
2022-09-28T08:25:22.110Z,79.35
2022-09-28T08:27:49.847Z,79.19
2022-09-28T08:30:20.223Z,79.16
2022-09-28T08:33:13.962Z,78.76
2022-09-28T08:35:44.454Z,78.80
2022-09-28T08:38:18.560Z,78.34
2022-09-28T08:41:31.728Z,78.07
2022-09-28T08:44:09.227Z,77.87
2022-09-28T08:47:00.021Z,77.48
2022-09-28T08:49:50.679Z,77.10
2022-09-28T08:52:35.892Z,76.93
2022-09-28T08:55:39.130Z,76.56
2022-09-28T08:58:13.945Z,76.41
2022-09-28T09:00:47.457Z,76.14
2022-09-28T09:03:21.164Z,75.84
2022-09-28T09:06:31.488Z,75.66
2022-09-28T09:09:33.151Z,75.45
2022-09-28T09:12:09.193Z,75.09
2022-09-28T09:14:44.560Z,74.46
2022-09-28T09:17:24.841Z,74.24
2022-09-28T09:20:41.503Z,74.22
2022-09-28T09:23:20.452Z,73.92
2022-09-28T09:25:55.086Z,73.52
2022-09-28T09:28:51.824Z,73.27
2022-09-28T09:31:43.041Z,73.19
2022-09-28T09:34:42.699Z,72.53
2022-09-28T09:37:58.621Z,72.21
2022-09-28T09:41:06.478Z,71.98
2022-09-28T09:44:26.889Z,71.79
2022-09-28T09:47:16.519Z,71.87
2022-09-28T09:50:05.465Z,71.60
2022-09-28T09:52:49.557Z,71.37
2022-09-28T09:55:29.830Z,71.26
2022-09-28T09:58:22.632Z,70.92
2022-09-28T10:00:59.775Z,71.16
2022-09-28T10:03:48.343Z,71.07
2022-09-28T10:06:20.930Z,70.60
2022-09-28T10:09:11.325Z,70.85
2022-09-28T10:11:44.146Z,70.74
2022-09-28T10:14:22.611Z,70.50
2022-09-28T10:17:01.542Z,70.34
2022-09-28T10:19:46.949Z,70.38
2022-09-28T10:22:44.966Z,70.31
2022-09-28T10:25:15.874Z,70.31
2022-09-28T10:27:47.631Z,70.10
2022-09-28T10:30:24.460Z,70.35
2022-09-28T10:32:55.237Z,70.18
2022-09-28T10:35:25.867Z,70.08
2022-09-28T10:38:15.059Z,69.52
2022-09-28T10:40:54.519Z,69.52
2022-09-28T10:43:38.746Z,69.38
2022-09-28T10:46:13.602Z,68.99
2022-09-28T10:49:18.094Z,68.27
2022-09-28T10:51:54.812Z,67.66
2022-09-28T10:54:27.112Z,67.30
2022-09-28T10:56:56.786Z,67.04
2022-09-28T10:59:39.296Z,67.09
2022-09-28T11:02:36.020Z,67.47
2022-09-28T11:05:30.113Z,67.55
2022-09-28T11:08:06.714Z,67.18
2022-09-28T11:10:41.125Z,66.96
2022-09-28T11:13:14.033Z,66.84
2022-09-28T11:15:44.765Z,66.20
2022-09-28T11:18:25.962Z,66.21
2022-09-28T11:20:53.057Z,65.76
2022-09-28T11:23:30.317Z,65.82
2022-09-28T11:26:06.404Z,65.75
2022-09-28T11:28:37.639Z,65.71
2022-09-28T11:31:12.020Z,65.41
2022-09-28T11:34:02.747Z,64.63
2022-09-28T11:37:00.952Z,64.69
2022-09-28T11:39:52.674Z,64.04
2022-09-28T11:42:44.727Z,64.17
2022-09-28T11:45:23.952Z,63.97
2022-09-28T11:48:02.212Z,63.53
2022-09-28T11:50:47.928Z,63.34
2022-09-28T11:53:25.446Z,63.28
2022-09-28T11:56:07.937Z,63.55
2022-09-28T11:58:40.476Z,63.35
2022-09-28T12:01:26.137Z,63.63
2022-09-28T12:04:16.629Z,63.80
2022-09-28T12:06:59.989Z,63.85
2022-09-28T12:09:37.420Z,63.86
2022-09-28T12:12:28.504Z,63.72
2022-09-28T12:15:00.602Z,64.11
2022-09-28T12:17:35.594Z,64.02
2022-09-28T12:20:05.520Z,64.10
2022-09-28T12:22:35.484Z,64.11
2022-09-28T12:25:04.364Z,64.30
2022-09-28T12:27:45.387Z,64.68
2022-09-28T12:30:13.820Z,65.25
2022-09-28T12:32:51.133Z,65.83
2022-09-28T12:35:33.571Z,66.31
2022-09-28T12:38:26.684Z,66.50
2022-09-28T12:41:11.561Z,66.48
2022-09-28T12:43:57.177Z,66.49
2022-09-28T12:46:51.976Z,66.40
2022-09-28T12:50:33.289Z,67.02
2022-09-28T12:52:29.521Z,67.32
2022-09-28T12:55:04.059Z,67.80
2022-09-28T12:57:48.804Z,67.87
2022-09-28T13:00:24.983Z,68.36
2022-09-28T13:03:13.474Z,68.13
2022-09-28T13:05:57.656Z,68.43
2022-09-28T13:08:33.700Z,68.55
2022-09-28T13:11:08.995Z,68.42
2022-09-28T13:13:49.538Z,67.32
2022-09-28T13:16:45.076Z,66.88
2022-09-28T13:19:18.556Z,66.40
2022-09-28T13:22:26.301Z,65.30
2022-09-28T13:24:55.393Z,64.79
2022-09-28T13:27:29.565Z,64.09
2022-09-28T13:30:00.835Z,63.73
2022-09-28T13:32:30.067Z,63.34
2022-09-28T13:34:57.147Z,63.28
2022-09-28T13:37:25.689Z,63.27
2022-09-28T13:39:57.479Z,62.86
2022-09-28T13:42:33.649Z,62.76
2022-09-28T13:45:18.475Z,62.75
2022-09-28T13:47:51.779Z,63.30
2022-09-28T13:50:30.132Z,63.35
2022-09-28T13:53:04.175Z,62.60
2022-09-28T13:55:55.939Z,62.54
2022-09-28T13:58:44.796Z,62.18
2022-09-28T14:01:14.509Z,61.25
2022-09-28T14:03:44.764Z,61.11
2022-09-28T14:06:27.950Z,61.13
2022-09-28T14:09:12.097Z,60.73
2022-09-28T14:11:53.694Z,60.80
2022-09-28T14:14:26.178Z,60.88
2022-09-28T14:17:21.729Z,61.25
2022-09-28T14:20:12.765Z,61.14
2022-09-28T14:23:01.044Z,61.29
2022-09-28T14:25:30.911Z,60.63
2022-09-28T14:28:19.934Z,60.24
2022-09-28T14:30:50.099Z,59.58
2022-09-28T14:33:27.207Z,59.09
2022-09-28T14:35:58.753Z,59.26
2022-09-28T14:38:53.890Z,59.16
2022-09-28T14:41:33.863Z,59.32
2022-09-28T14:44:08.899Z,59.28
2022-09-28T14:46:42.307Z,59.65
2022-09-28T14:49:19.297Z,59.80
2022-09-28T14:51:56.199Z,60.07
2022-09-28T14:54:25.066Z,59.81
2022-09-28T14:56:51.883Z,59.64
2022-09-28T14:59:22.681Z,59.81
2022-09-28T15:02:01.199Z,59.91
2022-09-28T15:04:30.505Z,59.87
2022-09-28T15:07:03.696Z,59.80
2022-09-28T15:09:35.254Z,60.56
2022-09-28T15:12:07.760Z,60.28
2022-09-28T15:14:40.269Z,60.31
2022-09-28T15:17:11.665Z,60.61
2022-09-28T15:19:46.613Z,61.29
2022-09-28T15:22:17.303Z,61.81
2022-09-28T15:25:02.188Z,63.30
2022-09-28T15:27:37.748Z,64.89
2022-09-28T15:30:23.613Z,65.72
2022-09-28T15:32:50.591Z,66.19
2022-09-28T15:35:35.861Z,67.10
2022-09-28T15:38:04.287Z,67.25
2022-09-28T15:40:35.476Z,67.94
2022-09-28T15:43:02.597Z,68.04
2022-09-28T15:45:35.120Z,68.49
2022-09-28T15:48:27.383Z,68.74
2022-09-28T15:51:17.672Z,68.85
2022-09-28T15:53:50.738Z,69.20
2022-09-28T15:56:17.487Z,69.07
2022-09-28T15:58:44.309Z,69.35
2022-09-28T16:01:31.105Z,69.53
2022-09-28T16:03:58.073Z,69.47
2022-09-28T16:06:25.047Z,69.69
2022-09-28T16:08:51.898Z,69.56
2022-09-28T16:11:27.551Z,69.72
2022-09-28T16:14:17.673Z,70.24
2022-09-28T16:16:47.414Z,70.31
2022-09-28T16:19:24.251Z,70.25
2022-09-28T16:22:00.216Z,70.65
2022-09-28T16:24:32.774Z,71.16
2022-09-28T16:27:05.006Z,71.16
2022-09-28T16:29:42.211Z,71.60
2022-09-28T16:32:27.282Z,71.77
2022-09-28T16:35:18.763Z,72.07
2022-09-28T16:37:47.263Z,72.38
2022-09-28T16:40:14.025Z,72.72
2022-09-28T16:42:48.666Z,72.94
2022-09-28T16:45:23.921Z,72.81
2022-09-28T16:47:53.645Z,73.03
2022-09-28T16:50:21.466Z,73.22
2022-09-28T16:53:28.135Z,73.17
2022-09-28T16:55:54.992Z,73.11
2022-09-28T16:58:22.411Z,73.42
2022-09-28T17:00:49.110Z,73.72
2022-09-28T17:03:18.643Z,73.83
2022-09-28T17:05:46.644Z,73.99
2022-09-28T17:08:17.507Z,74.26
2022-09-28T17:11:12.889Z,74.25
2022-09-28T17:13:37.967Z,74.61
2022-09-28T17:16:18.021Z,74.53
2022-09-28T17:18:46.094Z,74.85
2022-09-28T17:21:15.944Z,74.64
2022-09-28T17:23:44.210Z,74.89
2022-09-28T17:26:19.221Z,74.83
2022-09-28T17:28:46.474Z,75.04
2022-09-28T17:31:27.024Z,75.33
2022-09-28T17:33:54.647Z,75.32
2022-09-28T17:36:27.145Z,75.85
2022-09-28T17:38:53.963Z,76.34
2022-09-28T17:41:21.278Z,76.57
2022-09-28T17:43:49.013Z,77.03
2022-09-28T17:46:30.415Z,76.82
2022-09-28T17:49:01.620Z,76.90
2022-09-28T17:51:35.027Z,77.40
2022-09-28T17:54:02.261Z,77.83
2022-09-28T17:56:32.109Z,77.91
2022-09-28T17:59:04.944Z,78.10
2022-09-28T18:01:34.737Z,78.66
2022-09-28T18:04:03.628Z,78.65
2022-09-28T18:06:33.714Z,78.76
2022-09-28T18:09:02.929Z,78.99
2022-09-28T18:11:30.754Z,79.26
2022-09-28T18:13:57.697Z,79.49
2022-09-28T18:16:25.078Z,79.28
2022-09-28T18:18:52.050Z,79.34
2022-09-28T18:21:18.927Z,79.36
2022-09-28T18:23:45.826Z,79.71
2022-09-28T18:26:14.042Z,79.66
2022-09-28T18:28:41.116Z,79.88
2022-09-28T18:31:09.687Z,80.08
2022-09-28T18:33:37.018Z,80.05
2022-09-28T18:36:05.061Z,80.13
2022-09-28T18:38:32.401Z,80.34
2022-09-28T18:41:16.782Z,80.40
2022-09-28T18:43:49.169Z,80.35
2022-09-28T18:46:18.299Z,80.57
2022-09-28T18:48:48.009Z,81.04
2022-09-28T18:51:15.267Z,81.06
2022-09-28T18:53:42.161Z,81.07
2022-09-28T18:56:11.106Z,81.19
2022-09-28T18:58:39.163Z,81.14
2022-09-28T19:01:28.917Z,81.33
2022-09-28T19:03:59.451Z,81.59
2022-09-28T19:06:26.160Z,81.79
2022-09-28T19:08:53.967Z,81.45
2022-09-28T19:11:20.741Z,82.00
2022-09-28T19:13:48.158Z,81.65
2022-09-28T19:16:21.082Z,81.55
2022-09-28T19:18:48.065Z,81.83
2022-09-28T19:21:16.233Z,81.63
2022-09-28T19:23:48.972Z,81.71
2022-09-28T19:26:18.993Z,81.64
2022-09-28T19:28:45.825Z,81.51
2022-09-28T19:31:13.212Z,81.77
2022-09-28T19:33:41.185Z,81.71
2022-09-28T19:36:10.412Z,81.67
2022-09-28T19:38:38.417Z,81.78
2022-09-28T19:41:10.118Z,82.09
2022-09-28T19:43:37.285Z,82.17
2022-09-28T19:46:08.391Z,82.14
2022-09-28T19:48:35.605Z,82.37
2022-09-28T19:51:07.444Z,82.29
2022-09-28T19:53:38.621Z,82.59
2022-09-28T19:56:05.720Z,82.58
2022-09-28T19:58:35.204Z,82.80
2022-09-28T20:01:06.647Z,82.40
2022-09-28T20:03:34.587Z,82.85
2022-09-28T20:06:04.832Z,82.62
2022-09-28T20:08:31.561Z,82.54
2022-09-28T20:11:00.051Z,82.64
2022-09-28T20:13:32.017Z,82.72
2022-09-28T20:16:14.683Z,82.39
2022-09-28T20:18:44.491Z,82.25
2022-09-28T20:21:18.137Z,82.60
2022-09-28T20:23:45.876Z,82.69
2022-09-28T20:26:13.312Z,82.84
2022-09-28T20:28:40.966Z,82.50
2022-09-28T20:31:14.005Z,82.86
2022-09-28T20:33:42.788Z,82.76
2022-09-28T20:36:12.039Z,82.37
2022-09-28T20:38:40.637Z,82.55
2022-09-28T20:41:08.640Z,82.26
2022-09-28T20:43:35.433Z,82.32
2022-09-28T20:46:03.294Z,81.89
2022-09-28T20:48:30.505Z,82.10
2022-09-28T20:51:03.043Z,81.83
2022-09-28T20:53:30.638Z,82.40
2022-09-28T20:56:06.312Z,82.02
2022-09-28T20:58:33.437Z,82.34
2022-09-28T21:01:12.544Z,82.06
2022-09-28T21:03:39.654Z,82.17
2022-09-28T21:06:12.302Z,82.28
2022-09-28T21:08:39.155Z,82.15
2022-09-28T21:11:07.338Z,82.20
2022-09-28T21:13:34.156Z,82.19
2022-09-28T21:16:02.181Z,82.08
2022-09-28T21:18:31.577Z,81.44
2022-09-28T21:20:58.355Z,81.38
2022-09-28T21:23:25.264Z,81.44
2022-09-28T21:26:03.884Z,81.31
2022-09-28T21:28:30.583Z,81.33
2022-09-28T21:30:57.497Z,81.25
2022-09-28T21:33:24.287Z,81.55
2022-09-28T21:35:51.070Z,81.43
2022-09-28T21:38:17.776Z,81.49
2022-09-28T21:40:44.506Z,81.47
2022-09-28T21:43:11.448Z,81.51
2022-09-28T21:45:38.833Z,81.66
2022-09-28T21:48:05.653Z,82.08
2022-09-28T21:50:32.707Z,82.15
2022-09-28T21:53:00.589Z,82.00
2022-09-28T21:55:27.421Z,81.99
2022-09-28T21:57:54.150Z,82.20
2022-09-28T22:00:23.376Z,82.48
2022-09-28T22:02:53.339Z,82.57
2022-09-28T22:05:20.202Z,82.73
2022-09-28T22:07:47.265Z,82.90
2022-09-28T22:10:15.163Z,83.15
2022-09-28T22:12:42.134Z,83.53
2022-09-28T22:15:11.430Z,83.51
2022-09-28T22:17:38.212Z,83.49
2022-09-28T22:20:05.585Z,83.59
2022-09-28T22:22:32.425Z,83.67
2022-09-28T22:24:59.194Z,83.70
2022-09-28T22:27:25.987Z,83.76
2022-09-28T22:29:52.669Z,83.75
2022-09-28T22:32:19.410Z,83.86
2022-09-28T22:34:46.248Z,83.77
2022-09-28T22:37:12.971Z,83.94
2022-09-28T22:39:41.179Z,83.84
2022-09-28T22:42:08.437Z,83.77
2022-09-28T22:44:35.940Z,83.96
2022-09-28T22:47:03.331Z,83.79
2022-09-28T22:49:32.813Z,83.78
2022-09-28T22:51:59.583Z,83.88
2022-09-28T22:54:26.332Z,83.94
2022-09-28T22:56:53.111Z,83.82
2022-09-28T22:59:19.956Z,83.86
2022-09-28T23:01:47.105Z,83.89
2022-09-28T23:04:13.917Z,84.30
2022-09-28T23:06:41.350Z,84.02
2022-09-28T23:09:08.323Z,84.07
2022-09-28T23:11:35.070Z,83.91
2022-09-28T23:14:01.784Z,83.87
2022-09-28T23:16:30.091Z,84.08
2022-09-28T23:18:57.167Z,84.03
2022-09-28T23:21:26.060Z,83.85
2022-09-28T23:23:54.873Z,83.97
2022-09-28T23:26:24.356Z,83.62
2022-09-28T23:28:51.799Z,83.42
2022-09-28T23:31:21.731Z,83.81
2022-09-28T23:33:48.991Z,83.83
2022-09-28T23:36:16.625Z,83.71
2022-09-28T23:38:43.541Z,83.72
2022-09-28T23:41:10.699Z,83.36
2022-09-28T23:43:37.441Z,83.86
2022-09-28T23:46:05.209Z,83.95
2022-09-28T23:48:32.468Z,83.92
2022-09-28T23:50:59.271Z,83.96
2022-09-28T23:53:26.365Z,83.68
2022-09-28T23:55:53.166Z,83.89
2022-09-28T23:58:20.009Z,83.86
